Time;durP1;ratioP1;P1;durP2;ratioP2;P2;SDS_P1;SDS_P2;PMS_P1;PMS_P2;Temp;Humidity;BMP_temperature;BMP_pressure;BME280_temperature;BME280_humidity;BME280_pressure;Samples;Min_cycle;Max_cycle;Signal;HPM_P1;HPM_P2
2022/04/27 00:00:43;;;;;;;10.30;6.10;;;4.80;99.90;;;;;;5085547;28;20072;-71
2022/04/27 00:03:09;;;;;;;14.05;7.68;;;5.40;99.90;;;;;;5083356;28;20102;-69
2022/04/27 00:05:36;;;;;;;15.63;7.90;;;4.80;99.90;;;;;;5079795;28;20098;-69
2022/04/27 00:08:02;;;;;;;15.32;7.88;;;4.80;99.90;;;;;;5080121;28;20048;-71
2022/04/27 00:10:28;;;;;;;13.57;7.90;;;4.90;99.90;;;;;;5086402;28;20049;-69
2022/04/27 00:12:54;;;;;;;15.40;8.02;;;4.90;99.90;;;;;;5081422;28;20545;-70
2022/04/27 00:15:23;;;;;;;10.60;6.25;;;4.80;99.90;;;;;;5079317;28;20051;-71
2022/04/27 00:17:49;;;;;;;12.77;6.60;;;4.70;99.90;;;;;;5078671;28;20039;-70
2022/04/27 00:20:15;;;;;;;12.60;7.95;;;4.60;99.90;;;;;;5083941;28;20459;-70
2022/04/27 00:22:41;;;;;;;16.77;7.82;;;4.50;99.90;;;;;;5067806;28;20197;-70
2022/04/27 00:25:07;;;;;;;14.90;8.10;;;4.60;99.90;;;;;;5079297;28;20492;-69
2022/04/27 00:27:33;;;;;;;14.32;7.25;;;4.60;99.90;;;;;;5043817;28;20040;-69
2022/04/27 00:29:59;;;;;;;14.88;7.45;;;4.70;99.90;;;;;;5081394;28;20086;-69
2022/04/27 00:32:25;;;;;;;10.73;7.28;;;4.70;99.90;;;;;;5076469;28;20036;-71
2022/04/27 00:34:51;;;;;;;13.65;7.50;;;4.70;99.90;;;;;;5065669;28;20043;-70
2022/04/27 00:37:20;;;;;;;13.68;7.57;;;4.70;99.90;;;;;;5079443;28;20044;-69
2022/04/27 00:39:46;;;;;;;10.85;7.53;;;4.60;99.90;;;;;;5065988;28;20056;-70
2022/04/27 00:42:24;;;;;;;16.20;8.10;;;5.00;99.90;;;;;;5061755;28;20040;-69
2022/04/27 00:44:50;;;;;;;15.48;8.40;;;4.50;99.90;;;;;;5080302;28;20442;-71
2022/04/27 00:47:17;;;;;;;13.48;7.53;;;4.70;99.90;;;;;;5079323;28;20370;-73
2022/04/27 00:49:51;;;;;;;18.77;8.40;;;4.70;99.90;;;;;;5076162;28;20059;-70
2022/04/27 00:52:19;;;;;;;13.98;7.32;;;4.80;99.90;;;;;;5080798;28;20446;-70
2022/04/27 00:54:51;;;;;;;12.20;7.75;;;4.70;99.90;;;;;;5066023;28;20048;-70
2022/04/27 00:57:17;;;;;;;;;;;4.70;99.90;;;;;;5075711;28;20056;-70
2022/04/27 00:59:43;;;;;;;14.25;8.43;;;4.70;99.90;;;;;;5068818;28;19924;-71
2022/04/27 01:02:09;;;;;;;16.15;8.55;;;4.70;99.90;;;;;;5082267;28;20741;-70
2022/04/27 01:04:37;;;;;;;17.55;9.40;;;4.70;99.90;;;;;;5074565;28;20051;-70
2022/04/27 01:07:05;;;;;;;16.05;8.95;;;4.70;99.90;;;;;;5101138;28;20047;-70
2022/04/27 01:09:32;;;;;;;18.23;8.98;;;4.70;99.90;;;;;;5070618;28;20535;-69
2022/04/27 01:11:59;;;;;;;14.32;7.90;;;4.80;99.90;;;;;;5070954;28;20051;-71
2022/04/27 01:14:25;;;;;;;16.27;7.60;;;4.80;99.90;;;;;;5075930;28;20059;-70
2022/04/27 01:16:56;;;;;;;15.20;8.27;;;4.90;99.90;;;;;;5088081;28;20036;-69
2022/04/27 01:19:24;;;;;;;14.25;8.27;;;5.00;99.90;;;;;;5108189;28;20106;-69
2022/04/27 01:21:50;;;;;;;17.30;8.45;;;4.90;99.90;;;;;;5089241;28;20044;-70
2022/04/27 01:24:24;;;;;;;15.10;7.95;;;5.00;99.90;;;;;;5071670;28;20140;-70
2022/04/27 01:26:50;;;;;;;18.15;8.60;;;4.90;99.90;;;;;;5086907;28;20043;-70
2022/04/27 01:29:20;;;;;;;14.25;7.85;;;5.00;99.90;;;;;;5097024;28;20055;-70
2022/04/27 01:31:46;;;;;;;17.83;8.38;;;5.00;99.90;;;;;;5084671;28;20040;-71
2022/04/27 01:34:13;;;;;;;14.50;8.43;;;5.10;99.90;;;;;;5090368;28;20116;-70
2022/04/27 01:36:39;;;;;;;13.05;7.93;;;5.10;99.90;;;;;;5073623;28;20036;-70
2022/04/27 01:39:06;;;;;;;15.25;7.88;;;5.10;99.90;;;;;;5083810;28;20061;-71
2022/04/27 01:41:32;;;;;;;14.35;7.63;;;5.10;99.90;;;;;;5106426;28;20064;-70
2022/04/27 01:43:58;;;;;;;15.35;8.13;;;5.20;99.90;;;;;;5084084;28;20059;-70
2022/04/27 01:46:26;;;;;;;13.15;8.45;;;5.30;99.90;;;;;;5086170;28;20052;-70
2022/04/27 01:48:52;;;;;;;15.10;7.70;;;5.30;99.90;;;;;;5077427;28;20127;-69
2022/04/27 01:51:18;;;;;;;12.90;8.32;;;5.40;99.90;;;;;;5113547;27;20536;-69
2022/04/27 01:56:31;;;;;;;14.68;8.25;;;5.40;99.90;;;;;;5096982;28;20040;-70
2022/04/27 01:58:57;;;;;;;15.27;7.50;;;5.50;99.90;;;;;;5095461;28;20466;-70
2022/04/27 02:01:25;;;;;;;16.00;8.80;;;5.50;99.90;;;;;;5076172;28;20042;-69
2022/04/27 02:03:51;;;;;;;17.48;9.40;;;5.40;99.90;;;;;;5064520;28;20050;-69
2022/04/27 02:06:19;;;;;;;15.05;8.82;;;5.50;99.90;;;;;;5096734;28;20085;-70
2022/04/27 02:08:46;;;;;;;18.13;9.38;;;5.50;99.90;;;;;;5084096;28;20647;-70
2022/04/27 02:11:12;;;;;;;19.40;9.75;;;5.50;99.90;;;;;;5079137;28;20051;-71
2022/04/27 02:13:38;;;;;;;17.08;10.00;;;5.40;99.90;;;;;;5098977;28;20047;-69
2022/04/27 02:16:04;;;;;;;17.45;9.52;;;5.50;99.90;;;;;;5062065;28;20151;-71
2022/04/27 02:18:30;;;;;;;14.80;8.65;;;5.50;99.90;;;;;;5094154;28;20127;-70
2022/04/27 02:20:56;;;;;;;16.60;9.20;;;5.50;99.90;;;;;;5093454;28;20576;-70
2022/04/27 02:23:22;;;;;;;16.83;9.68;;;5.50;99.90;;;;;;5063916;28;20523;-70
2022/04/27 02:25:48;;;;;;;18.80;10.32;;;5.50;99.90;;;;;;5092183;28;20050;-70
2022/04/27 02:28:15;;;;;;;17.05;10.45;;;5.50;99.90;;;;;;5078963;28;20043;-70
2022/04/27 02:30:41;;;;;;;20.20;10.52;;;5.50;99.90;;;;;;5098909;28;20053;-69
2022/04/27 02:33:06;;;;;;;19.35;10.35;;;5.50;99.90;;;;;;5098681;28;20043;-71
2022/04/27 02:35:32;;;;;;;14.73;9.20;;;5.50;99.90;;;;;;5093241;28;20040;-71
2022/04/27 02:37:58;;;;;;;15.93;10.10;;;5.60;99.90;;;;;;5081048;28;20047;-70
2022/04/27 02:40:24;;;;;;;15.43;9.50;;;5.60;99.90;;;;;;5093320;28;20119;-70
2022/04/27 02:42:52;;;;;;;16.50;10.55;;;5.60;99.90;;;;;;5099341;28;20162;-69
2022/04/27 02:45:18;;;;;;;15.75;9.50;;;5.60;99.90;;;;;;5080539;28;20075;-70
2022/04/27 02:47:44;;;;;;;18.40;9.50;;;5.60;99.90;;;;;;5096425;28;20459;-70
2022/04/27 02:52:54;;;;;;;20.88;10.65;;;5.70;99.90;;;;;;5089380;28;20036;-70
2022/04/27 02:55:22;;;;;;;16.95;10.63;;;5.80;99.90;;;;;;5056451;28;20119;-69
2022/04/27 02:57:48;;;;;;;21.60;10.77;;;5.90;99.90;;;;;;5075535;28;20454;-70
2022/04/27 03:00:16;;;;;;;20.98;10.93;;;5.90;99.90;;;;;;5088534;28;20044;-70
2022/04/27 03:02:42;;;;;;;19.75;11.00;;;5.90;99.90;;;;;;5076403;28;20052;-72
2022/04/27 03:05:08;;;;;;;17.02;10.05;;;5.80;99.90;;;;;;5065561;28;20047;-70
2022/04/27 03:07:34;;;;;;;18.73;9.93;;;5.80;99.90;;;;;;5077884;28;20128;-70
2022/04/27 03:10:00;;;;;;;20.38;9.77;;;5.70;99.90;;;;;;5086891;28;20524;-69
2022/04/27 03:12:26;;;;;;;20.27;11.30;;;5.70;99.90;;;;;;5081726;28;20566;-70
2022/04/27 03:14:52;;;;;;;17.90;10.32;;;5.70;99.90;;;;;;5082051;28;20039;-70
2022/04/27 03:17:18;;;;;;;17.30;10.40;;;5.70;99.90;;;;;;5079422;28;20537;-70
2022/04/27 03:19:44;;;;;;;17.15;10.30;;;5.60;99.90;;;;;;5095248;28;20586;-71
2022/04/27 03:22:10;;;;;;;19.52;11.38;;;5.70;99.90;;;;;;5097129;28;20496;-70
2022/04/27 03:24:37;;;;;;;19.73;11.40;;;5.70;99.90;;;;;;5099372;28;20096;-72
2022/04/27 03:27:05;;;;;;;18.15;10.18;;;5.80;99.90;;;;;;5091827;28;20135;-71
2022/04/27 03:29:31;;;;;;;19.30;10.27;;;5.70;99.90;;;;;;5094067;28;20400;-70
2022/04/27 03:31:57;;;;;;;16.42;9.93;;;5.70;99.90;;;;;;5094816;28;20109;-71
2022/04/27 03:34:23;;;;;;;15.07;9.50;;;5.70;99.90;;;;;;5097886;28;20056;-70
2022/04/27 03:36:49;;;;;;;21.85;11.68;;;5.60;99.90;;;;;;5098531;28;20056;-69
2022/04/27 03:39:15;;;;;;;18.92;10.57;;;5.60;99.90;;;;;;5077154;28;20092;-70
2022/04/27 03:41:41;;;;;;;18.25;10.60;;;5.60;99.90;;;;;;5077584;28;20050;-71
2022/04/27 03:44:08;;;;;;;20.30;11.35;;;5.60;99.90;;;;;;5096216;28;20040;-70
2022/04/27 03:46:34;;;;;;;20.25;11.10;;;5.60;99.90;;;;;;5091110;28;20090;-70
2022/04/27 03:49:00;;;;;;;22.50;11.48;;;5.60;99.90;;;;;;5112977;28;20059;-69
2022/04/27 03:51:26;;;;;;;21.75;11.48;;;5.70;99.90;;;;;;5093325;28;20036;-71
2022/04/27 03:53:53;;;;;;;18.83;10.77;;;5.70;99.90;;;;;;5097126;28;20046;-70
2022/04/27 03:56:19;;;;;;;19.55;11.40;;;5.70;99.90;;;;;;5090287;28;20048;-70
2022/04/27 03:58:45;;;;;;;19.75;11.25;;;5.70;99.90;;;;;;5091582;28;20044;-69
2022/04/27 04:01:11;;;;;;;20.25;10.95;;;5.70;99.90;;;;;;5092934;28;20071;-69
2022/04/27 04:03:37;;;;;;;19.38;11.23;;;5.70;99.90;;;;;;5084641;28;20164;-70
2022/04/27 04:06:03;;;;;;;17.17;10.70;;;5.80;99.90;;;;;;5061144;28;20079;-70
2022/04/27 04:08:29;;;;;;;20.13;10.02;;;5.80;99.90;;;;;;5093957;28;20055;-69
2022/04/27 04:10:56;;;;;;;20.50;10.30;;;5.80;99.90;;;;;;5075461;28;20059;-69
2022/04/27 04:13:22;;;;;;;24.10;11.98;;;5.80;99.90;;;;;;5097425;28;20048;-70
2022/04/27 04:15:49;;;;;;;20.85;11.73;;;5.80;99.90;;;;;;5079459;28;20047;-70
2022/04/27 04:18:15;;;;;;;21.00;11.30;;;5.80;99.90;;;;;;5103099;28;20050;-69
2022/04/27 04:20:42;;;;;;;20.60;10.63;;;5.90;99.90;;;;;;5096085;28;20043;-71
2022/04/27 04:23:08;;;;;;;17.08;10.23;;;5.90;99.90;;;;;;5098397;28;20477;-71
2022/04/27 04:28:31;;;;;;;22.08;11.32;;;6.00;99.90;;;;;;5098290;28;20043;-71
2022/04/27 04:31:05;;;;;;;20.60;12.23;;;6.10;99.90;;;;;;5097987;28;20480;-70
2022/04/27 04:33:31;;;;;;;20.42;10.73;;;6.10;99.90;;;;;;5098062;28;20048;-70
2022/04/27 04:35:58;;;;;;;24.00;11.52;;;6.20;99.90;;;;;;5084929;28;20040;-71
2022/04/27 04:38:24;;;;;;;21.33;10.82;;;6.30;99.90;;;;;;5121103;27;20185;-70
2022/04/27 04:40:52;;;;;;;20.60;11.23;;;6.30;99.90;;;;;;5096720;28;20043;-71
2022/04/27 04:43:19;;;;;;;24.17;11.52;;;6.30;99.90;;;;;;5101157;28;20068;-70
2022/04/27 04:45:45;;;;;;;23.00;11.50;;;6.40;99.90;;;;;;5099332;28;20626;-70
2022/04/27 04:48:11;;;;;;;21.48;12.15;;;6.40;99.90;;;;;;5097950;28;20036;-70
2022/04/27 04:50:38;;;;;;;21.00;11.70;;;6.40;99.90;;;;;;5083620;28;20039;-70
2022/04/27 04:53:05;;;;;;;21.67;12.50;;;6.40;99.90;;;;;;5050417;28;20049;-73
2022/04/27 04:55:31;;;;;;;18.75;10.90;;;6.50;99.90;;;;;;5098776;28;20045;-70
2022/04/27 04:57:58;;;;;;;20.42;12.23;;;6.50;99.90;;;;;;5064831;28;20118;-70
2022/04/27 05:00:24;;;;;;;20.85;11.77;;;6.50;99.90;;;;;;5100154;28;20051;-70
2022/04/27 05:02:51;;;;;;;17.92;10.95;;;6.60;99.90;;;;;;5095623;28;20185;-70
2022/04/27 05:05:17;;;;;;;17.20;10.98;;;6.60;99.90;;;;;;5101035;28;20050;-70
2022/04/27 05:07:43;;;;;;;19.27;11.55;;;6.70;99.90;;;;;;5084045;28;20480;-73
2022/04/27 05:10:10;;;;;;;21.73;11.00;;;6.60;99.90;;;;;;5096749;28;20044;-70
2022/04/27 05:12:36;;;;;;;20.70;11.20;;;6.70;99.90;;;;;;5078613;28;20126;-70
2022/04/27 05:15:02;;;;;;;18.52;11.10;;;6.70;99.90;;;;;;5068156;28;20058;-70
2022/04/27 05:17:28;;;;;;;21.92;11.60;;;6.80;99.90;;;;;;5100506;28;20048;-70
2022/04/27 05:19:54;;;;;;;21.75;11.98;;;6.90;99.90;;;;;;5077813;28;20048;-70
2022/04/27 05:22:20;;;;;;;19.52;11.25;;;6.90;99.90;;;;;;5082647;28;20400;-69
2022/04/27 05:24:46;;;;;;;23.95;12.57;;;7.00;99.90;;;;;;5076515;28;20044;-70
2022/04/27 05:27:12;;;;;;;23.02;12.15;;;7.00;99.90;;;;;;5083004;28;20051;-71
2022/04/27 05:32:23;;;;;;;21.10;12.13;;;7.20;99.90;;;;;;5097591;27;20381;-73
2022/04/27 05:34:49;;;;;;;20.08;11.63;;;7.20;99.90;;;;;;5095562;28;20492;-70
2022/04/27 05:37:15;;;;;;;20.30;12.25;;;7.30;99.90;;;;;;5101688;28;20044;-70
2022/04/27 05:39:41;;;;;;;22.30;13.13;;;7.40;99.90;;;;;;5092627;28;20056;-70
2022/04/27 05:42:07;;;;;;;20.20;11.48;;;7.40;99.90;;;;;;5096856;28;20052;-70
2022/04/27 05:44:33;;;;;;;19.00;11.35;;;7.50;99.90;;;;;;5098820;28;20392;-70
2022/04/27 05:46:59;;;;;;;21.00;12.57;;;7.50;99.90;;;;;;5093972;28;20393;-70
2022/04/27 05:49:25;;;;;;;20.40;11.93;;;7.50;99.90;;;;;;5100657;28;20484;-70
2022/04/27 05:51:51;;;;;;;23.95;12.88;;;7.70;99.90;;;;;;5080661;28;20447;-72
2022/04/27 05:54:18;;;;;;;25.80;13.38;;;7.70;99.90;;;;;;5101227;28;20047;-70
2022/04/27 05:56:44;;;;;;;23.10;13.02;;;7.70;99.90;;;;;;5093089;28;20063;-70
2022/04/27 05:59:10;;;;;;;23.33;12.85;;;7.80;99.90;;;;;;5075068;28;20048;-71
2022/04/27 06:01:37;;;;;;;19.83;12.15;;;7.90;99.90;;;;;;5090821;28;20044;-71
2022/04/27 06:04:04;;;;;;;24.30;11.65;;;7.90;99.90;;;;;;5098263;28;20157;-71
2022/04/27 06:06:30;;;;;;;20.70;11.13;;;8.00;99.90;;;;;;5081089;28;20551;-70
2022/04/27 06:08:56;;;;;;;21.27;11.45;;;8.00;99.90;;;;;;5098427;28;20051;-70
2022/04/27 06:11:22;;;;;;;19.48;11.57;;;8.10;99.90;;;;;;5097502;28;20059;-70
2022/04/27 06:13:49;;;;;;;17.33;10.80;;;8.10;99.90;;;;;;5098326;28;20042;-72
2022/04/27 06:16:15;;;;;;;19.63;10.88;;;8.20;99.90;;;;;;5097733;28;20048;-71
2022/04/27 06:18:42;;;;;;;21.58;11.75;;;8.20;99.90;;;;;;5083523;28;20054;-70
2022/04/27 06:21:09;;;;;;;21.35;11.50;;;8.20;99.90;;;;;;5097516;28;20044;-73
2022/04/27 06:23:36;;;;;;;20.98;11.15;;;8.30;99.90;;;;;;5098439;28;20111;-73
2022/04/27 06:26:02;;;;;;;21.23;11.45;;;8.30;99.90;;;;;;5095546;28;20050;-75
2022/04/27 06:28:28;;;;;;;21.05;11.05;;;8.30;99.90;;;;;;5097010;28;20057;-74
2022/04/27 06:30:54;;;;;;;19.88;10.77;;;8.40;99.90;;;;;;5100701;28;20527;-70
2022/04/27 06:33:20;;;;;;;19.52;11.15;;;8.40;99.90;;;;;;5093733;28;20044;-71
2022/04/27 06:35:46;;;;;;;20.63;11.48;;;8.50;99.90;;;;;;5077967;28;20382;-70
2022/04/27 06:38:12;;;;;;;20.13;11.57;;;8.60;99.90;;;;;;5099408;28;20131;-70
2022/04/27 06:40:38;;;;;;;15.75;10.80;;;8.70;99.90;;;;;;5095368;28;20126;-71
2022/04/27 06:43:04;;;;;;;19.65;9.93;;;8.80;99.90;;;;;;5078084;28;20052;-71
2022/04/27 06:45:31;;;;;;;20.58;10.00;;;8.80;99.90;;;;;;5073852;28;20131;-71
2022/04/27 06:47:57;;;;;;;16.90;10.23;;;9.00;99.90;;;;;;5090716;28;20523;-71
2022/04/27 06:50:23;;;;;;;19.33;10.30;;;9.00;99.90;;;;;;5087924;28;20050;-71
2022/04/27 06:52:50;;;;;;;15.02;9.95;;;9.00;99.90;;;;;;5091586;28;20070;-71
2022/04/27 06:55:17;;;;;;;13.02;7.68;;;9.20;99.90;;;;;;5071210;28;20043;-70
2022/04/27 06:57:43;;;;;;;13.77;8.00;;;9.20;99.90;;;;;;5088265;28;20048;-71
2022/04/27 07:00:12;;;;;;;12.20;7.00;;;9.40;99.90;;;;;;5089063;28;20043;-70
2022/04/27 07:02:38;;;;;;;11.45;7.13;;;9.60;99.90;;;;;;5089261;28;20040;-70
2022/04/27 07:05:09;;;;;;;8.93;6.32;;;9.70;99.90;;;;;;5089036;28;20052;-71
2022/04/27 07:07:35;;;;;;;11.75;6.20;;;9.80;99.90;;;;;;5090851;28;20050;-70
2022/04/27 07:10:02;;;;;;;10.75;6.65;;;9.90;99.90;;;;;;5064519;28;20169;-71
2022/04/27 07:12:28;;;;;;;10.63;6.15;;;10.00;99.90;;;;;;5090403;28;20055;-70
2022/04/27 07:14:54;;;;;;;13.20;6.18;;;10.20;99.90;;;;;;5065470;28;20562;-70
2022/04/27 07:17:20;;;;;;;9.18;5.82;;;10.30;99.90;;;;;;5088886;28;20056;-71
2022/04/27 07:19:46;;;;;;;11.60;5.88;;;10.40;99.90;;;;;;5120692;28;20472;-71
2022/04/27 07:22:12;;;;;;;8.57;5.32;;;10.50;99.90;;;;;;5092079;28;20413;-72
2022/04/27 07:24:38;;;;;;;10.70;5.35;;;10.60;99.90;;;;;;5096300;28;20074;-73
2022/04/27 07:27:05;;;;;;;8.25;5.22;;;10.80;99.90;;;;;;5096782;28;20403;-71
2022/04/27 07:29:31;;;;;;;7.10;3.10;;;10.80;99.90;;;;;;5096066;28;20043;-71
2022/04/27 07:31:59;;;;;;;5.05;2.50;;;10.70;99.90;;;;;;5077780;28;20143;-72
2022/04/27 07:34:25;;;;;;;5.00;2.17;;;10.70;99.90;;;;;;5100084;28;20043;-74
2022/04/27 07:36:52;;;;;;;4.32;1.98;;;10.80;99.90;;;;;;5090867;28;20123;-71
2022/04/27 07:39:18;;;;;;;4.00;2.33;;;10.80;99.90;;;;;;5083136;28;20061;-71
2022/04/27 07:41:46;;;;;;;5.03;2.60;;;10.90;99.90;;;;;;5090527;28;20066;-71
2022/04/27 07:44:13;;;;;;;5.03;2.92;;;10.90;99.90;;;;;;5084975;28;20045;-71
2022/04/27 07:46:39;;;;;;;6.40;2.53;;;10.90;99.90;;;;;;5088470;28;20060;-72
2022/04/27 07:49:04;;;;;;;7.05;2.60;;;10.90;99.90;;;;;;5091915;28;20408;-72
2022/04/27 07:51:30;;;;;;;5.68;2.92;;;10.90;99.90;;;;;;5057541;28;20084;-71
2022/04/27 07:53:56;;;;;;;3.28;2.40;;;11.00;99.90;;;;;;5086513;28;20048;-72
2022/04/27 07:56:23;;;;;;;7.68;3.00;;;10.90;99.90;;;;;;5094705;28;20480;-71
2022/04/27 07:58:49;;;;;;;5.50;2.53;;;11.00;99.90;;;;;;5104956;28;20088;-72
2022/04/27 08:01:14;;;;;;;5.00;2.30;;;11.20;99.90;;;;;;5099835;28;20168;-71
2022/04/27 08:03:40;;;;;;;4.20;2.00;;;11.10;99.90;;;;;;5095300;28;20396;-71
2022/04/27 08:06:06;;;;;;;5.07;2.28;;;11.20;99.90;;;;;;5090735;28;20499;-72
2022/04/27 08:08:33;;;;;;;7.22;2.50;;;11.20;99.90;;;;;;5083085;28;20044;-71
2022/04/27 08:10:59;;;;;;;5.30;2.40;;;11.40;99.90;;;;;;5086460;28;20404;-72
2022/04/27 08:13:25;;;;;;;4.40;2.40;;;11.40;99.90;;;;;;5086379;28;20051;-71
2022/04/27 08:15:51;;;;;;;4.60;2.30;;;11.50;99.90;;;;;;5088763;28;20047;-71
2022/04/27 08:18:17;;;;;;;3.70;1.95;;;11.70;99.90;;;;;;5120490;27;20048;-71
2022/04/27 08:23:32;;;;;;;5.38;2.60;;;11.50;99.90;;;;;;5091643;28;20044;-71
2022/04/27 08:26:03;;;;;;;5.72;2.20;;;11.50;99.90;;;;;;5093150;28;20129;-71
2022/04/27 08:28:30;;;;;;;5.75;2.42;;;11.40;99.90;;;;;;5093669;28;20091;-71
2022/04/27 08:30:56;;;;;;;4.57;2.20;;;11.70;99.90;;;;;;5097553;28;20051;-72
2022/04/27 08:33:23;;;;;;;4.47;2.58;;;11.80;99.90;;;;;;5095931;28;20051;-71
2022/04/27 08:35:49;;;;;;;4.38;2.20;;;11.80;99.90;;;;;;5098408;28;20066;-71
2022/04/27 08:38:15;;;;;;;7.80;2.70;;;11.80;99.90;;;;;;5096291;28;20044;-71
2022/04/27 08:40:45;;;;;;;5.55;2.60;;;11.80;99.90;;;;;;5084358;28;20511;-71
2022/04/27 08:43:12;;;;;;;6.00;2.78;;;11.90;99.90;;;;;;5096817;28;20109;-74
2022/04/27 08:45:43;;;;;;;6.68;2.35;;;11.90;99.90;;;;;;5094584;28;20452;-68
2022/04/27 08:48:11;;;;;;;5.43;2.60;;;12.00;99.90;;;;;;5082820;28;20074;-70
2022/04/27 08:50:37;;;;;;;5.18;2.40;;;11.90;99.90;;;;;;5091601;28;20119;-68
2022/04/27 08:53:04;;;;;;;4.07;2.47;;;12.00;99.90;;;;;;5080147;28;20549;-68
2022/04/27 08:55:30;;;;;;;5.20;2.35;;;12.10;99.90;;;;;;5092340;28;20032;-67
2022/04/27 08:58:08;;;;;;;5.90;2.63;;;12.20;99.90;;;;;;5075599;28;20090;-68
2022/04/27 09:00:35;;;;;;;3.88;2.58;;;12.30;90.40;;;;;;5093069;28;20506;-68
2022/04/27 09:03:27;;;;;;;4.80;2.38;;;12.30;99.90;;;;;;5094481;28;20040;-70
2022/04/27 09:06:02;;;;;;;6.40;2.88;;;12.30;79.00;;;;;;5101494;28;20115;-72
2022/04/27 09:08:40;;;;;;;6.03;2.78;;;12.20;91.20;;;;;;5096357;28;20053;-69
2022/04/27 09:11:21;;;;;;;8.65;3.10;;;12.40;92.60;;;;;;5092776;28;20050;-71
2022/04/27 09:13:53;;;;;;;4.68;2.70;;;12.30;86.50;;;;;;5075900;28;20059;-69
2022/04/27 09:16:22;;;;;;;7.85;2.63;;;12.50;92.80;;;;;;5066385;28;20059;-68
2022/04/27 09:21:59;;;;;;;6.93;2.30;;;12.80;90.00;;;;;;5092695;28;20043;-76
2022/04/27 09:24:27;;;;;;;5.13;2.25;;;12.90;78.30;;;;;;5073937;28;20290;-72
2022/04/27 09:27:03;;;;;;;5.43;2.28;;;13.00;84.90;;;;;;5091858;28;20125;-68
2022/04/27 09:29:30;;;;;;;6.63;2.63;;;13.00;79.80;;;;;;5075298;28;20040;-74
2022/04/27 09:31:58;;;;;;;7.43;2.40;;;13.10;80.30;;;;;;5054446;28;20044;-79
2022/04/27 09:34:27;;;;;;;7.50;2.53;;;13.10;79.20;;;;;;5092000;28;20080;-76
2022/04/27 09:36:55;;;;;;;6.93;2.40;;;13.10;77.60;;;;;;5078735;28;20040;-75
2022/04/27 09:39:25;;;;;;;6.97;2.38;;;13.10;77.90;;;;;;5086753;28;20063;-69
2022/04/27 09:41:52;;;;;;;6.10;2.20;;;12.90;73.10;;;;;;5087501;28;20055;-68
2022/04/27 09:44:38;;;;;;;4.10;2.58;;;12.60;75.40;;;;;;5096603;28;20084;-70
2022/04/27 09:47:06;;;;;;;6.13;2.25;;;12.70;73.50;;;;;;5102273;28;20048;-71
2022/04/27 09:49:36;;;;;;;4.00;2.47;;;12.60;74.40;;;;;;5100860;28;20049;-69
2022/04/27 09:52:05;;;;;;;6.25;2.63;;;12.50;73.60;;;;;;5068451;28;20166;-71
2022/04/27 09:54:36;;;;;;;5.95;2.60;;;12.50;76.70;;;;;;5101103;28;20071;-72
2022/04/27 09:57:09;;;;;;;5.80;2.70;;;12.50;75.30;;;;;;5085596;28;20071;-70
2022/04/27 09:59:36;;;;;;;6.38;2.75;;;12.60;73.00;;;;;;5104524;28;20052;-69
2022/04/27 10:02:11;;;;;;;5.97;2.42;;;12.80;74.10;;;;;;5084794;28;20051;-77
2022/04/27 10:04:38;;;;;;;5.22;2.72;;;13.10;73.40;;;;;;5092511;28;20626;-71
2022/04/27 10:07:07;;;;;;;6.65;2.90;;;13.20;72.60;;;;;;5094197;28;20121;-68
2022/04/27 10:09:33;;;;;;;4.68;2.65;;;13.20;73.80;;;;;;5099220;28;20122;-68
2022/04/27 10:12:03;;;;;;;7.25;2.65;;;13.50;73.10;;;;;;5096108;28;20051;-71
2022/04/27 10:14:30;;;;;;;6.63;3.00;;;13.60;72.40;;;;;;5091094;28;20431;-72
2022/04/27 10:16:56;;;;;;;7.13;2.75;;;13.80;71.60;;;;;;5074620;28;20123;-68
2022/04/27 10:19:23;;;;;;;6.03;2.88;;;13.80;70.10;;;;;;5089569;28;20040;-68
2022/04/27 10:21:57;;;;;;;6.15;2.80;;;13.70;71.30;;;;;;5087612;28;20097;-68
2022/04/27 10:24:38;;;;;;;7.53;3.10;;;13.50;71.90;;;;;;5080534;28;20067;-67
2022/04/27 10:27:14;;;;;;;7.70;3.03;;;13.60;71.00;;;;;;5091501;28;20044;-68
2022/04/27 10:29:40;;;;;;;5.28;3.00;;;13.80;70.60;;;;;;5091304;28;20169;-68
2022/04/27 10:32:06;;;;;;;4.82;3.15;;;13.80;75.40;;;;;;5091416;28;20129;-70
2022/04/27 10:34:33;;;;;;;4.45;2.90;;;13.60;73.50;;;;;;5074057;28;20161;-69
2022/04/27 10:37:01;;;;;;;6.03;3.00;;;13.40;72.70;;;;;;5057175;28;20061;-69
2022/04/27 10:39:34;;;;;;;7.10;3.10;;;13.30;70.80;;;;;;5081464;28;20060;-71
2022/04/27 10:42:02;;;;;;;5.38;3.10;;;13.40;71.90;;;;;;5068651;28;20047;-68
2022/04/27 10:44:58;;;;;;;8.52;3.13;;;13.20;69.00;;;;;;5077162;28;20045;-68
2022/04/27 10:47:24;;;;;;;7.47;3.45;;;13.30;68.80;;;;;;5114739;27;20047;-68
2022/04/27 10:50:13;;;;;;;5.97;3.13;;;13.30;71.90;;;;;;5089303;28;20048;-70
2022/04/27 10:52:43;;;;;;;6.57;3.50;;;13.30;67.80;;;;;;5099919;28;20107;-70
2022/04/27 10:55:34;;;;;;;6.75;3.58;;;13.30;70.10;;;;;;5099397;28;20130;-69
2022/04/27 10:58:13;;;;;;;5.65;3.38;;;13.60;67.70;;;;;;5073939;28;20054;-69
2022/04/27 11:00:58;;;;;;;4.57;2.97;;;13.70;66.70;;;;;;5085235;28;20044;-73
2022/04/27 11:03:35;;;;;;;6.50;3.78;;;13.50;67.00;;;;;;5086628;28;20040;-69
2022/04/27 11:06:09;;;;;;;6.80;3.78;;;13.30;72.80;;;;;;5100384;28;20048;-70
2022/04/27 11:08:43;;;;;;;5.35;3.00;;;13.00;74.10;;;;;;5087943;28;20047;-68
2022/04/27 11:11:09;;;;;;;8.18;3.30;;;13.00;71.60;;;;;;5100409;28;20509;-68
2022/04/27 11:13:36;;;;;;;4.57;2.90;;;13.50;71.30;;;;;;5080075;28;20045;-68
2022/04/27 11:16:13;;;;;;;7.35;4.00;;;13.70;70.10;;;;;;5075554;28;20491;-69
2022/04/27 11:18:51;;;;;;;7.80;3.20;;;14.00;68.70;;;;;;5068428;28;20520;-69
2022/04/27 11:21:22;;;;;;;9.57;3.47;;;14.40;68.20;;;;;;5071249;28;20044;-69
2022/04/27 11:23:48;;;;;;;6.00;3.05;;;14.70;66.90;;;;;;5100220;28;20108;-70
2022/04/27 11:26:15;;;;;;;5.93;3.13;;;14.90;67.50;;;;;;5093599;28;20040;-69
2022/04/27 11:28:45;;;;;;;6.18;3.55;;;15.20;67.50;;;;;;5100846;28;20089;-70
2022/04/27 11:31:12;;;;;;;6.75;3.40;;;15.40;66.60;;;;;;5099754;28;20075;-68
2022/04/27 11:33:40;;;;;;;8.43;3.40;;;15.30;66.40;;;;;;5099512;28;20054;-68
2022/04/27 11:36:22;;;;;;;7.07;3.40;;;15.20;65.90;;;;;;5092384;28;20114;-71
2022/04/27 11:38:49;;;;;;;5.63;3.35;;;15.00;64.00;;;;;;5087302;28;20500;-72
2022/04/27 11:41:20;;;;;;;8.50;3.20;;;15.00;65.50;;;;;;5099002;28;20061;-69
2022/04/27 11:43:47;;;;;;;6.60;3.50;;;14.90;65.20;;;;;;5085708;28;20476;-70
2022/04/27 11:46:13;;;;;;;5.20;3.55;;;14.70;65.10;;;;;;5095104;28;20056;-76
2022/04/27 11:48:39;;;;;;;7.03;3.60;;;14.80;64.80;;;;;;5079252;28;20441;-73
2022/04/27 11:51:06;;;;;;;6.20;3.10;;;14.90;65.00;;;;;;5101723;28;20039;-73
2022/04/27 11:53:49;;;;;;;6.50;3.13;;;14.90;65.80;;;;;;5082653;28;20139;-79
2022/04/27 11:56:19;;;;;;;11.95;3.63;;;14.50;65.50;;;;;;5099945;28;20413;-73
2022/04/27 11:58:46;;;;;;;11.20;3.53;;;14.30;67.80;;;;;;5102269;28;20043;-77
2022/04/27 12:01:20;;;;;;;9.63;3.15;;;14.10;68.60;;;;;;5086077;28;20044;-72
2022/04/27 12:03:49;;;;;;;9.40;3.25;;;14.00;69.70;;;;;;5087353;28;20042;-74
2022/04/27 12:06:19;;;;;;;9.38;3.17;;;13.60;70.20;;;;;;5102506;28;20481;-76
2022/04/27 12:08:45;;;;;;;12.00;3.17;;;13.40;72.10;;;;;;5092925;28;20055;-72
2022/04/27 12:11:21;;;;;;;10.05;3.55;;;12.90;75.40;;;;;;5099117;28;20044;-75
2022/04/27 12:13:47;;;;;;;8.65;3.38;;;12.70;88.60;;;;;;5078938;28;20070;-75
2022/04/27 12:16:13;;;;;;;12.35;3.15;;;12.70;92.90;;;;;;5093453;28;20373;-76
2022/04/27 12:18:51;;;;;;;7.72;3.20;;;12.60;96.00;;;;;;5093277;28;20386;-73
2022/04/27 12:21:26;;;;;;;8.18;3.17;;;12.50;99.90;;;;;;5093989;28;20055;-74
2022/04/27 12:23:56;;;;;;;9.13;2.95;;;12.40;99.90;;;;;;5106375;28;20047;-73
2022/04/27 12:26:25;;;;;;;9.07;3.63;;;12.50;99.90;;;;;;5097277;28;20059;-75
2022/04/27 12:28:51;;;;;;;10.52;3.05;;;12.60;99.90;;;;;;5093500;28;20552;-78
2022/04/27 12:31:21;;;;;;;11.88;3.55;;;12.60;99.90;;;;;;5087226;28;20048;-75
2022/04/27 12:33:49;;;;;;;7.60;3.15;;;12.40;99.90;;;;;;5125742;27;20412;-74
2022/04/27 12:39:20;;;;;;;11.13;3.58;;;13.10;99.90;;;;;;5107636;28;20048;-75
2022/04/27 12:41:47;;;;;;;11.57;3.42;;;13.30;98.40;;;;;;5090074;28;20109;-79
2022/04/27 12:44:15;;;;;;;11.25;3.35;;;13.40;99.90;;;;;;5092393;28;20060;-81
2022/04/27 12:47:05;;;;;;;13.02;3.75;;;13.60;99.90;;;;;;5093538;28;20048;-79
2022/04/27 12:49:36;;;;;;;13.82;3.20;;;13.70;99.30;;;;;;5076632;28;20089;-78
2022/04/27 12:52:30;;;;;;;6.50;2.70;;;13.70;99.20;;;;;;5097689;28;20046;-79
2022/04/27 12:55:10;;;;;;;10.00;2.88;;;13.80;96.20;;;;;;5096823;28;20130;-80
2022/04/27 12:57:55;;;;;;;11.02;3.10;;;13.80;99.20;;;;;;5096954;28;20516;-85
2022/04/27 13:00:36;;;;;;;14.52;3.60;;;13.70;99.90;;;;;;5088370;28;20047;-86
2022/04/27 13:03:02;;;;;;;8.40;3.07;;;13.80;99.90;;;;;;5093721;28;20086;-86
2022/04/27 13:05:28;;;;;;;13.60;3.38;;;13.90;97.60;;;;;;5092271;28;20040;-85
2022/04/27 13:07:57;;;;;;;10.27;3.13;;;13.80;99.90;;;;;;5098805;28;20044;-80